Aviation Discussion

.AVIATION...ISSUED 1201 AM EDT SAT AUG 23 2014 //DISCUSSION... MIXED MEDIUM TO HIGH BASED STRATOCU WILL LINGER OVER THE TERMINAL CORRIDOR THROUGH THE MORNING. SATELLITE IMAGERY ALSO INDICATES IFR LAKE STRATUS AND MVFR FOG MAKING PROGRESS INLAND THROUGH THE THUMB SINCE SUNSET. LIGHT NORTHEAST BOUNDARY LAYER FLOW AND THE LOW LEVEL THERMAL PROFILE WILL BE FAVORABLE FOR THESE CLOUDS TO CONTINUE INLAND REACHING MBS FIRST FROM SAGINAW BAY AND LAST AT DTW/YIP TOWARD SUNRISE. CONDITIONS WILL THEN FOLLOW THE TYPICAL DIURNAL CYCLE THROUGH THE MORNING AND RETURN TO VFR BY AFTERNOON UNDER CONTINUED LIGHT NE WIND. //DTW THRESHOLD THREATS... * LOW POTENTIAL ON CEILING REACHING 200 FEET TOWARD SUNRISE.

KDTW 230907Z 2309/2412 05005KT P6SM SCT030 BKN060
FM231100 05005KT 6SM BR SCT015 BKN060
FM231400 07007KT P6SM SCT020
FM231600 09007KT P6SM SCT050
FM232300 12005KT P6SM SCT070=

KDET 230527Z 2306/2406 04005KT P6SM BKN050
FM230900 04003KT 3SM BR BKN005 OVC070
FM231400 07007KT P6SM SCT020
FM231600 09007KT P6SM SCT050
FM232300 12005KT P6SM SCT070=

Cleveland Center Weather Service Unit (CWSU)
Mission:
Our main responsibility is to provide up to the minute weather information to FAA Supervisors and the ZOB Traffic Management Unit (TMU). Some of the products issued by the CWSU are the Center Weather Advisories (CWA) and the Meteorological Impact Statement (MIS). The CWA is an aviation weather warning for thunderstorms, severe icing or turbulence, and low IFR ceilings and visibility. The MIS is a 2-12 hour forecast for weather conditions, which are expected to impact ARTCC operations.
 
Operations:
The Cleveland Center Weather Service Unit (ZOB CWSU) is located at the Federal Aviation Administration (FAA) Air Route Traffic Control Center (ARTCC) in Oberlin, OH. Four National Weather Service meteorologists staff the office. Our hours of operation are from 6:00 A.M. to 9:30 P.M. daily.

Web Site Owner:
NOAA National Weather Service
Cleveland ARTCC Attn:CWSU
326 East Lorain Street
Oberlin, OH 44074
Web Administrator:Webmaster
Page last modified: 23 Feb 2013
Disclaimer
Credits
Glossary
Privacy Policy
About Our Organization
Career Opportunities